sensor_id;sensor_type;location;lat;lon;timestamp;P1;durP1;ratioP1;P2;durP2;ratioP2
24357;SDS011;13668;52.154;5.580;2023-05-23T00:00:24;5.95;;;3.95;;
24357;SDS011;13668;52.154;5.580;2023-05-23T00:02:50;4.90;;;3.95;;
24357;SDS011;13668;52.154;5.580;2023-05-23T00:05:16;6.68;;;4.75;;
24357;SDS011;13668;52.154;5.580;2023-05-23T00:07:43;7.05;;;4.38;;
24357;SDS011;13668;52.154;5.580;2023-05-23T00:10:09;8.75;;;4.13;;
24357;SDS011;13668;52.154;5.580;2023-05-23T00:12:36;8.95;;;5.13;;
24357;SDS011;13668;52.154;5.580;2023-05-23T00:15:03;8.40;;;4.25;;
24357;SDS011;13668;52.154;5.580;2023-05-23T00:17:32;6.65;;;4.43;;
24357;SDS011;13668;52.154;5.580;2023-05-23T00:20:02;6.45;;;3.80;;
24357;SDS011;13668;52.154;5.580;2023-05-23T00:22:28;6.63;;;5.07;;
24357;SDS011;13668;52.154;5.580;2023-05-23T00:24:53;7.20;;;4.35;;
24357;SDS011;13668;52.154;5.580;2023-05-23T00:27:21;6.07;;;4.05;;
24357;SDS011;13668;52.154;5.580;2023-05-23T00:29:47;7.07;;;4.35;;
24357;SDS011;13668;52.154;5.580;2023-05-23T00:32:13;7.55;;;4.45;;
24357;SDS011;13668;52.154;5.580;2023-05-23T00:34:39;7.68;;;4.78;;
24357;SDS011;13668;52.154;5.580;2023-05-23T00:37:05;7.60;;;4.13;;
24357;SDS011;13668;52.154;5.580;2023-05-23T00:39:32;4.47;;;3.72;;
24357;SDS011;13668;52.154;5.580;2023-05-23T00:41:58;8.75;;;3.92;;
24357;SDS011;13668;52.154;5.580;2023-05-23T00:44:24;11.48;;;4.28;;
24357;SDS011;13668;52.154;5.580;2023-05-23T00:46:51;4.55;;;3.53;;
24357;SDS011;13668;52.154;5.580;2023-05-23T00:49:17;7.97;;;4.15;;
24357;SDS011;13668;52.154;5.580;2023-05-23T00:51:46;6.05;;;3.58;;
24357;SDS011;13668;52.154;5.580;2023-05-23T00:54:25;5.05;;;3.50;;
24357;SDS011;13668;52.154;5.580;2023-05-23T00:56:53;4.35;;;3.08;;
24357;SDS011;13668;52.154;5.580;2023-05-23T00:59:20;4.50;;;3.28;;
24357;SDS011;13668;52.154;5.580;2023-05-23T01:01:47;5.47;;;3.53;;
24357;SDS011;13668;52.154;5.580;2023-05-23T01:04:13;5.05;;;3.10;;
24357;SDS011;13668;52.154;5.580;2023-05-23T01:06:40;5.78;;;3.17;;
24357;SDS011;13668;52.154;5.580;2023-05-23T01:09:11;4.68;;;3.17;;
24357;SDS011;13668;52.154;5.580;2023-05-23T01:14:17;3.88;;;2.83;;
24357;SDS011;13668;52.154;5.580;2023-05-23T01:16:50;4.13;;;3.15;;
24357;SDS011;13668;52.154;5.580;2023-05-23T01:22:28;4.13;;;3.33;;
24357;SDS011;13668;52.154;5.580;2023-05-23T01:25:04;4.53;;;3.00;;
24357;SDS011;13668;52.154;5.580;2023-05-23T01:27:52;3.80;;;2.88;;
24357;SDS011;13668;52.154;5.580;2023-05-23T01:30:20;4.30;;;3.40;;
24357;SDS011;13668;52.154;5.580;2023-05-23T01:32:46;3.55;;;3.03;;
24357;SDS011;13668;52.154;5.580;2023-05-23T01:35:13;6.18;;;3.10;;
24357;SDS011;13668;52.154;5.580;2023-05-23T01:37:44;4.60;;;2.85;;
24357;SDS011;13668;52.154;5.580;2023-05-23T01:40:11;5.95;;;3.25;;
24357;SDS011;13668;52.154;5.580;2023-05-23T01:42:37;3.95;;;3.10;;
24357;SDS011;13668;52.154;5.580;2023-05-23T01:45:03;5.18;;;3.08;;
24357;SDS011;13668;52.154;5.580;2023-05-23T01:47:29;3.88;;;2.90;;
24357;SDS011;13668;52.154;5.580;2023-05-23T01:49:55;5.53;;;3.20;;
24357;SDS011;13668;52.154;5.580;2023-05-23T01:52:22;7.63;;;3.08;;
24357;SDS011;13668;52.154;5.580;2023-05-23T01:54:48;7.85;;;4.00;;
24357;SDS011;13668;52.154;5.580;2023-05-23T01:57:15;4.65;;;3.72;;
24357;SDS011;13668;52.154;5.580;2023-05-23T01:59:41;5.60;;;3.70;;
24357;SDS011;13668;52.154;5.580;2023-05-23T02:02:07;7.53;;;4.05;;
24357;SDS011;13668;52.154;5.580;2023-05-23T02:04:34;9.27;;;4.30;;
24357;SDS011;13668;52.154;5.580;2023-05-23T02:07:00;4.82;;;3.42;;
24357;SDS011;13668;52.154;5.580;2023-05-23T02:09:26;9.25;;;4.22;;
24357;SDS011;13668;52.154;5.580;2023-05-23T02:11:51;8.27;;;3.85;;
24357;SDS011;13668;52.154;5.580;2023-05-23T02:14:18;6.07;;;4.10;;
24357;SDS011;13668;52.154;5.580;2023-05-23T02:16:44;5.45;;;3.13;;
24357;SDS011;13668;52.154;5.580;2023-05-23T02:19:10;9.25;;;4.38;;
24357;SDS011;13668;52.154;5.580;2023-05-23T02:21:36;4.68;;;2.85;;
24357;SDS011;13668;52.154;5.580;2023-05-23T02:24:02;6.88;;;3.30;;
24357;SDS011;13668;52.154;5.580;2023-05-23T02:26:28;7.50;;;3.67;;
24357;SDS011;13668;52.154;5.580;2023-05-23T02:28:54;3.97;;;2.85;;
24357;SDS011;13668;52.154;5.580;2023-05-23T02:31:20;5.00;;;3.20;;
24357;SDS011;13668;52.154;5.580;2023-05-23T02:33:47;3.95;;;3.05;;
24357;SDS011;13668;52.154;5.580;2023-05-23T02:36:13;6.60;;;3.22;;
24357;SDS011;13668;52.154;5.580;2023-05-23T02:38:39;4.32;;;2.55;;
24357;SDS011;13668;52.154;5.580;2023-05-23T02:41:05;5.75;;;3.42;;
24357;SDS011;13668;52.154;5.580;2023-05-23T02:43:31;3.83;;;2.63;;
24357;SDS011;13668;52.154;5.580;2023-05-23T02:45:57;3.50;;;2.28;;
24357;SDS011;13668;52.154;5.580;2023-05-23T02:48:23;6.95;;;2.60;;
24357;SDS011;13668;52.154;5.580;2023-05-23T02:50:49;4.03;;;2.72;;
24357;SDS011;13668;52.154;5.580;2023-05-23T02:53:14;4.38;;;3.05;;
24357;SDS011;13668;52.154;5.580;2023-05-23T02:55:40;2.85;;;2.55;;
24357;SDS011;13668;52.154;5.580;2023-05-23T02:58:07;4.82;;;2.78;;
24357;SDS011;13668;52.154;5.580;2023-05-23T03:00:33;5.30;;;3.15;;
24357;SDS011;13668;52.154;5.580;2023-05-23T03:02:59;4.95;;;2.65;;
24357;SDS011;13668;52.154;5.580;2023-05-23T03:05:25;6.72;;;3.70;;
24357;SDS011;13668;52.154;5.580;2023-05-23T03:07:51;4.28;;;2.88;;
24357;SDS011;13668;52.154;5.580;2023-05-23T03:10:18;3.92;;;2.67;;
24357;SDS011;13668;52.154;5.580;2023-05-23T03:12:45;5.93;;;2.55;;
24357;SDS011;13668;52.154;5.580;2023-05-23T03:15:11;6.88;;;3.47;;
24357;SDS011;13668;52.154;5.580;2023-05-23T03:17:37;5.30;;;2.78;;
24357;SDS011;13668;52.154;5.580;2023-05-23T03:20:04;5.88;;;2.90;;
24357;SDS011;13668;52.154;5.580;2023-05-23T03:22:33;5.13;;;2.85;;
24357;SDS011;13668;52.154;5.580;2023-05-23T03:24:59;4.28;;;3.05;;
24357;SDS011;13668;52.154;5.580;2023-05-23T03:27:25;8.07;;;3.65;;
24357;SDS011;13668;52.154;5.580;2023-05-23T03:29:51;5.43;;;3.15;;
24357;SDS011;13668;52.154;5.580;2023-05-23T03:32:17;6.22;;;3.95;;
24357;SDS011;13668;52.154;5.580;2023-05-23T03:34:43;5.38;;;3.38;;
24357;SDS011;13668;52.154;5.580;2023-05-23T03:37:09;7.30;;;3.15;;
24357;SDS011;13668;52.154;5.580;2023-05-23T03:39:35;7.03;;;3.90;;
24357;SDS011;13668;52.154;5.580;2023-05-23T03:42:01;3.40;;;3.08;;
24357;SDS011;13668;52.154;5.580;2023-05-23T03:44:27;7.88;;;3.15;;
24357;SDS011;13668;52.154;5.580;2023-05-23T03:46:53;7.50;;;3.90;;
24357;SDS011;13668;52.154;5.580;2023-05-23T03:49:18;6.68;;;3.63;;
24357;SDS011;13668;52.154;5.580;2023-05-23T03:51:44;5.28;;;3.95;;
24357;SDS011;13668;52.154;5.580;2023-05-23T03:54:10;7.13;;;4.10;;
24357;SDS011;13668;52.154;5.580;2023-05-23T03:56:36;8.93;;;3.88;;
24357;SDS011;13668;52.154;5.580;2023-05-23T03:59:02;4.85;;;3.38;;
24357;SDS011;13668;52.154;5.580;2023-05-23T04:01:28;6.97;;;4.03;;
24357;SDS011;13668;52.154;5.580;2023-05-23T04:03:54;9.15;;;4.53;;
24357;SDS011;13668;52.154;5.580;2023-05-23T04:06:20;9.18;;;4.10;;
24357;SDS011;13668;52.154;5.580;2023-05-23T04:08:47;9.40;;;3.90;;
24357;SDS011;13668;52.154;5.580;2023-05-23T04:11:13;8.73;;;3.60;;
24357;SDS011;13668;52.154;5.580;2023-05-23T04:13:39;6.65;;;3.20;;
24357;SDS011;13668;52.154;5.580;2023-05-23T04:16:06;9.65;;;4.57;;
24357;SDS011;13668;52.154;5.580;2023-05-23T04:18:32;4.13;;;2.60;;
24357;SDS011;13668;52.154;5.580;2023-05-23T04:20:58;7.25;;;2.90;;
24357;SDS011;13668;52.154;5.580;2023-05-23T04:23:24;7.05;;;3.22;;
24357;SDS011;13668;52.154;5.580;2023-05-23T04:25:50;4.93;;;3.00;;
24357;SDS011;13668;52.154;5.580;2023-05-23T04:28:16;4.80;;;2.92;;
24357;SDS011;13668;52.154;5.580;2023-05-23T04:30:43;3.42;;;2.55;;
24357;SDS011;13668;52.154;5.580;2023-05-23T04:33:09;9.55;;;2.72;;
24357;SDS011;13668;52.154;5.580;2023-05-23T04:35:35;3.67;;;2.47;;
24357;SDS011;13668;52.154;5.580;2023-05-23T04:38:04;6.57;;;2.45;;
24357;SDS011;13668;52.154;5.580;2023-05-23T04:40:30;5.43;;;3.63;;
24357;SDS011;13668;52.154;5.580;2023-05-23T04:42:56;4.43;;;2.70;;
24357;SDS011;13668;52.154;5.580;2023-05-23T04:45:22;5.50;;;2.80;;
24357;SDS011;13668;52.154;5.580;2023-05-23T04:47:48;2.53;;;2.17;;
24357;SDS011;13668;52.154;5.580;2023-05-23T04:50:14;3.92;;;2.40;;
24357;SDS011;13668;52.154;5.580;2023-05-23T04:52:40;4.57;;;2.50;;
24357;SDS011;13668;52.154;5.580;2023-05-23T04:55:06;2.97;;;1.83;;
24357;SDS011;13668;52.154;5.580;2023-05-23T04:57:33;5.50;;;2.70;;
24357;SDS011;13668;52.154;5.580;2023-05-23T04:59:59;3.63;;;1.58;;
24357;SDS011;13668;52.154;5.580;2023-05-23T05:02:26;3.13;;;1.77;;
24357;SDS011;13668;52.154;5.580;2023-05-23T05:04:52;2.17;;;1.65;;
24357;SDS011;13668;52.154;5.580;2023-05-23T05:07:18;3.08;;;1.60;;
24357;SDS011;13668;52.154;5.580;2023-05-23T05:09:44;2.25;;;1.50;;
24357;SDS011;13668;52.154;5.580;2023-05-23T05:12:10;1.73;;;1.52;;
24357;SDS011;13668;52.154;5.580;2023-05-23T05:14:36;5.43;;;1.75;;
24357;SDS011;13668;52.154;5.580;2023-05-23T05:17:02;2.38;;;1.33;;
24357;SDS011;13668;52.154;5.580;2023-05-23T05:19:28;1.92;;;1.38;;
24357;SDS011;13668;52.154;5.580;2023-05-23T05:21:54;3.55;;;2.20;;
24357;SDS011;13668;52.154;5.580;2023-05-23T05:24:21;4.20;;;2.25;;
24357;SDS011;13668;52.154;5.580;2023-05-23T05:26:47;5.28;;;2.50;;
24357;SDS011;13668;52.154;5.580;2023-05-23T05:29:13;3.15;;;1.85;;
24357;SDS011;13668;52.154;5.580;2023-05-23T05:31:40;8.00;;;1.83;;
24357;SDS011;13668;52.154;5.580;2023-05-23T05:34:07;5.70;;;2.33;;
24357;SDS011;13668;52.154;5.580;2023-05-23T05:36:33;4.45;;;2.35;;
24357;SDS011;13668;52.154;5.580;2023-05-23T05:38:59;8.40;;;2.85;;
24357;SDS011;13668;52.154;5.580;2023-05-23T05:41:26;3.67;;;1.90;;
24357;SDS011;13668;52.154;5.580;2023-05-23T05:43:52;5.35;;;2.08;;
24357;SDS011;13668;52.154;5.580;2023-05-23T05:46:17;3.55;;;1.92;;
24357;SDS011;13668;52.154;5.580;2023-05-23T05:48:44;3.42;;;2.03;;
24357;SDS011;13668;52.154;5.580;2023-05-23T05:51:10;5.38;;;2.60;;
24357;SDS011;13668;52.154;5.580;2023-05-23T05:53:36;2.55;;;1.80;;
24357;SDS011;13668;52.154;5.580;2023-05-23T05:56:02;4.65;;;2.10;;
24357;SDS011;13668;52.154;5.580;2023-05-23T05:58:28;4.85;;;2.25;;
24357;SDS011;13668;52.154;5.580;2023-05-23T06:00:54;4.50;;;2.33;;
24357;SDS011;13668;52.154;5.580;2023-05-23T06:03:20;3.70;;;2.13;;
24357;SDS011;13668;52.154;5.580;2023-05-23T06:05:47;2.50;;;2.17;;
24357;SDS011;13668;52.154;5.580;2023-05-23T06:08:13;5.15;;;2.47;;
24357;SDS011;13668;52.154;5.580;2023-05-23T06:10:39;4.88;;;2.17;;
24357;SDS011;13668;52.154;5.580;2023-05-23T06:13:05;2.97;;;2.13;;
24357;SDS011;13668;52.154;5.580;2023-05-23T06:15:31;4.43;;;2.05;;
24357;SDS011;13668;52.154;5.580;2023-05-23T06:17:57;9.75;;;2.47;;
24357;SDS011;13668;52.154;5.580;2023-05-23T06:20:23;5.45;;;2.30;;
24357;SDS011;13668;52.154;5.580;2023-05-23T06:22:49;5.63;;;2.33;;
24357;SDS011;13668;52.154;5.580;2023-05-23T06:25:15;4.50;;;2.70;;
24357;SDS011;13668;52.154;5.580;2023-05-23T06:27:41;9.52;;;2.67;;
24357;SDS011;13668;52.154;5.580;2023-05-23T06:30:08;4.13;;;1.60;;
24357;SDS011;13668;52.154;5.580;2023-05-23T06:32:35;3.28;;;2.58;;
24357;SDS011;13668;52.154;5.580;2023-05-23T06:35:01;3.28;;;2.20;;
24357;SDS011;13668;52.154;5.580;2023-05-23T06:37:27;3.05;;;2.10;;
24357;SDS011;13668;52.154;5.580;2023-05-23T06:39:53;4.60;;;2.45;;
24357;SDS011;13668;52.154;5.580;2023-05-23T06:42:19;3.40;;;2.38;;
24357;SDS011;13668;52.154;5.580;2023-05-23T06:44:45;2.28;;;2.00;;
24357;SDS011;13668;52.154;5.580;2023-05-23T06:47:11;4.25;;;2.08;;
24357;SDS011;13668;52.154;5.580;2023-05-23T06:49:37;5.57;;;2.17;;
24357;SDS011;13668;52.154;5.580;2023-05-23T06:52:03;5.38;;;2.60;;
24357;SDS011;13668;52.154;5.580;2023-05-23T06:54:29;3.72;;;1.83;;
24357;SDS011;13668;52.154;5.580;2023-05-23T06:56:55;5.55;;;2.90;;
24357;SDS011;13668;52.154;5.580;2023-05-23T06:59:21;4.78;;;2.28;;
24357;SDS011;13668;52.154;5.580;2023-05-23T07:01:47;5.00;;;2.00;;
24357;SDS011;13668;52.154;5.580;2023-05-23T07:04:13;6.65;;;2.33;;
24357;SDS011;13668;52.154;5.580;2023-05-23T07:06:39;2.75;;;1.80;;
24357;SDS011;13668;52.154;5.580;2023-05-23T07:09:05;4.35;;;2.05;;
24357;SDS011;13668;52.154;5.580;2023-05-23T07:11:31;4.85;;;2.08;;
24357;SDS011;13668;52.154;5.580;2023-05-23T07:13:57;3.17;;;1.73;;
24357;SDS011;13668;52.154;5.580;2023-05-23T07:16:23;2.83;;;2.22;;
24357;SDS011;13668;52.154;5.580;2023-05-23T07:18:49;2.55;;;1.80;;
24357;SDS011;13668;52.154;5.580;2023-05-23T07:21:15;1.75;;;1.20;;
24357;SDS011;13668;52.154;5.580;2023-05-23T07:23:41;2.13;;;1.10;;
24357;SDS011;13668;52.154;5.580;2023-05-23T07:26:07;4.50;;;1.33;;
24357;SDS011;13668;52.154;5.580;2023-05-23T07:28:33;2.17;;;0.98;;
24357;SDS011;13668;52.154;5.580;2023-05-23T07:31:00;1.38;;;1.08;;
24357;SDS011;13668;52.154;5.580;2023-05-23T07:33:26;1.90;;;1.17;;
24357;SDS011;13668;52.154;5.580;2023-05-23T07:35:52;3.90;;;1.15;;
24357;SDS011;13668;52.154;5.580;2023-05-23T07:38:18;1.02;;;0.95;;
24357;SDS011;13668;52.154;5.580;2023-05-23T07:40:44;2.42;;;1.27;;
24357;SDS011;13668;52.154;5.580;2023-05-23T07:43:10;4.60;;;1.20;;
24357;SDS011;13668;52.154;5.580;2023-05-23T07:45:36;4.45;;;0.68;;
24357;SDS011;13668;52.154;5.580;2023-05-23T07:48:02;1.15;;;0.60;;
24357;SDS011;13668;52.154;5.580;2023-05-23T07:50:28;2.05;;;0.73;;
24357;SDS011;13668;52.154;5.580;2023-05-23T07:52:55;1.65;;;1.20;;
24357;SDS011;13668;52.154;5.580;2023-05-23T07:55:21;2.50;;;0.90;;
24357;SDS011;13668;52.154;5.580;2023-05-23T07:57:48;2.33;;;1.30;;
24357;SDS011;13668;52.154;5.580;2023-05-23T08:00:14;3.78;;;0.75;;
24357;SDS011;13668;52.154;5.580;2023-05-23T08:02:40;3.05;;;0.85;;
24357;SDS011;13668;52.154;5.580;2023-05-23T08:05:07;1.38;;;0.90;;
24357;SDS011;13668;52.154;5.580;2023-05-23T08:07:33;4.25;;;1.50;;
24357;SDS011;13668;52.154;5.580;2023-05-23T08:09:59;3.47;;;1.20;;
24357;SDS011;13668;52.154;5.580;2023-05-23T08:12:25;3.97;;;1.00;;
24357;SDS011;13668;52.154;5.580;2023-05-23T08:14:51;2.80;;;0.60;;
24357;SDS011;13668;52.154;5.580;2023-05-23T08:17:17;2.75;;;1.00;;
24357;SDS011;13668;52.154;5.580;2023-05-23T08:19:43;1.52;;;1.42;;
24357;SDS011;13668;52.154;5.580;2023-05-23T08:22:09;1.95;;;1.00;;
24357;SDS011;13668;52.154;5.580;2023-05-23T08:24:35;1.15;;;0.63;;
24357;SDS011;13668;52.154;5.580;2023-05-23T08:27:01;2.83;;;0.70;;
24357;SDS011;13668;52.154;5.580;2023-05-23T08:29:26;1.63;;;0.63;;
24357;SDS011;13668;52.154;5.580;2023-05-23T08:31:52;3.53;;;1.63;;
24357;SDS011;13668;52.154;5.580;2023-05-23T08:34:18;2.15;;;0.90;;
24357;SDS011;13668;52.154;5.580;2023-05-23T08:36:44;2.65;;;0.90;;
24357;SDS011;13668;52.154;5.580;2023-05-23T08:39:10;2.10;;;0.90;;
24357;SDS011;13668;52.154;5.580;2023-05-23T08:41:36;2.03;;;0.90;;
24357;SDS011;13668;52.154;5.580;2023-05-23T08:44:03;2.45;;;0.93;;
24357;SDS011;13668;52.154;5.580;2023-05-23T08:46:29;1.92;;;0.82;;
24357;SDS011;13668;52.154;5.580;2023-05-23T08:48:57;4.25;;;1.35;;
24357;SDS011;13668;52.154;5.580;2023-05-23T08:51:25;6.80;;;1.35;;
24357;SDS011;13668;52.154;5.580;2023-05-23T08:53:51;2.92;;;1.05;;
24357;SDS011;13668;52.154;5.580;2023-05-23T08:56:20;3.42;;;0.95;;
24357;SDS011;13668;52.154;5.580;2023-05-23T08:58:46;2.25;;;1.25;;
24357;SDS011;13668;52.154;5.580;2023-05-23T09:01:12;1.92;;;1.10;;
24357;SDS011;13668;52.154;5.580;2023-05-23T09:03:39;6.05;;;1.02;;
24357;SDS011;13668;52.154;5.580;2023-05-23T09:06:09;2.03;;;1.00;;
24357;SDS011;13668;52.154;5.580;2023-05-23T09:08:35;2.42;;;0.90;;
24357;SDS011;13668;52.154;5.580;2023-05-23T09:11:01;3.85;;;1.05;;
24357;SDS011;13668;52.154;5.580;2023-05-23T09:13:31;4.03;;;1.70;;
24357;SDS011;13668;52.154;5.580;2023-05-23T09:18:31;2.75;;;0.98;;
24357;SDS011;13668;52.154;5.580;2023-05-23T09:20:57;1.63;;;1.00;;
24357;SDS011;13668;52.154;5.580;2023-05-23T09:23:23;3.33;;;0.98;;
24357;SDS011;13668;52.154;5.580;2023-05-23T09:25:49;4.55;;;0.95;;
24357;SDS011;13668;52.154;5.580;2023-05-23T09:28:15;2.70;;;0.73;;
24357;SDS011;13668;52.154;5.580;2023-05-23T09:30:42;3.85;;;1.40;;
24357;SDS011;13668;52.154;5.580;2023-05-23T09:33:08;1.42;;;0.65;;
24357;SDS011;13668;52.154;5.580;2023-05-23T09:35:33;2.83;;;1.17;;
24357;SDS011;13668;52.154;5.580;2023-05-23T09:37:59;4.72;;;0.90;;
24357;SDS011;13668;52.154;5.580;2023-05-23T09:40:29;2.35;;;1.45;;
24357;SDS011;13668;52.154;5.580;2023-05-23T09:42:56;2.58;;;0.95;;
24357;SDS011;13668;52.154;5.580;2023-05-23T09:45:28;2.42;;;0.95;;
24357;SDS011;13668;52.154;5.580;2023-05-23T09:47:55;2.08;;;1.17;;
24357;SDS011;13668;52.154;5.580;2023-05-23T09:50:21;4.55;;;1.20;;
24357;SDS011;13668;52.154;5.580;2023-05-23T09:52:47;2.65;;;0.75;;
24357;SDS011;13668;52.154;5.580;2023-05-23T09:55:13;4.15;;;0.73;;
24357;SDS011;13668;52.154;5.580;2023-05-23T09:57:40;4.35;;;0.90;;
24357;SDS011;13668;52.154;5.580;2023-05-23T10:00:07;2.58;;;0.70;;
24357;SDS011;13668;52.154;5.580;2023-05-23T10:05:35;3.55;;;0.70;;
24357;SDS011;13668;52.154;5.580;2023-05-23T10:08:04;1.63;;;0.90;;
24357;SDS011;13668;52.154;5.580;2023-05-23T10:10:32;5.78;;;1.02;;
24357;SDS011;13668;52.154;5.580;2023-05-23T10:13:01;2.40;;;1.20;;
24357;SDS011;13668;52.154;5.580;2023-05-23T10:15:34;1.33;;;0.93;;
24357;SDS011;13668;52.154;5.580;2023-05-23T10:18:01;1.77;;;1.13;;
24357;SDS011;13668;52.154;5.580;2023-05-23T10:20:29;1.27;;;0.90;;
24357;SDS011;13668;52.154;5.580;2023-05-23T10:22:58;4.13;;;1.35;;
24357;SDS011;13668;52.154;5.580;2023-05-23T10:25:25;5.57;;;1.48;;
24357;SDS011;13668;52.154;5.580;2023-05-23T10:27:54;2.65;;;1.08;;
24357;SDS011;13668;52.154;5.580;2023-05-23T10:30:23;4.13;;;1.05;;
24357;SDS011;13668;52.154;5.580;2023-05-23T10:32:49;5.53;;;1.02;;
24357;SDS011;13668;52.154;5.580;2023-05-23T10:42:53;1.90;;;0.77;;
24357;SDS011;13668;52.154;5.580;2023-05-23T10:45:22;2.40;;;1.05;;
24357;SDS011;13668;52.154;5.580;2023-05-23T10:47:51;2.80;;;1.20;;
24357;SDS011;13668;52.154;5.580;2023-05-23T10:50:31;1.48;;;0.95;;
24357;SDS011;13668;52.154;5.580;2023-05-23T10:52:58;2.72;;;1.20;;
24357;SDS011;13668;52.154;5.580;2023-05-23T10:55:25;2.03;;;0.90;;
24357;SDS011;13668;52.154;5.580;2023-05-23T11:00:36;4.57;;;1.13;;
24357;SDS011;13668;52.154;5.580;2023-05-23T11:03:03;1.50;;;0.75;;
24357;SDS011;13668;52.154;5.580;2023-05-23T11:05:33;3.80;;;0.85;;
24357;SDS011;13668;52.154;5.580;2023-05-23T11:08:09;4.75;;;0.93;;
24357;SDS011;13668;52.154;5.580;2023-05-23T11:10:53;3.00;;;0.90;;
24357;SDS011;13668;52.154;5.580;2023-05-23T11:13:20;7.05;;;1.10;;
24357;SDS011;13668;52.154;5.580;2023-05-23T11:15:46;4.85;;;0.98;;
24357;SDS011;13668;52.154;5.580;2023-05-23T11:18:19;1.95;;;0.98;;
24357;SDS011;13668;52.154;5.580;2023-05-23T11:20:45;3.08;;;1.02;;
24357;SDS011;13668;52.154;5.580;2023-05-23T11:23:11;2.58;;;1.08;;
24357;SDS011;13668;52.154;5.580;2023-05-23T11:25:38;4.25;;;0.90;;
24357;SDS011;13668;52.154;5.580;2023-05-23T11:28:05;5.22;;;1.08;;
24357;SDS011;13668;52.154;5.580;2023-05-23T11:30:31;3.35;;;0.70;;
24357;SDS011;13668;52.154;5.580;2023-05-23T11:32:57;3.38;;;0.70;;
24357;SDS011;13668;52.154;5.580;2023-05-23T11:35:23;1.77;;;1.20;;
24357;SDS011;13668;52.154;5.580;2023-05-23T11:37:49;3.58;;;0.80;;
24357;SDS011;13668;52.154;5.580;2023-05-23T11:40:34;2.05;;;0.60;;
24357;SDS011;13668;52.154;5.580;2023-05-23T11:43:02;3.13;;;1.30;;
24357;SDS011;13668;52.154;5.580;2023-05-23T11:45:28;1.80;;;0.93;;
24357;SDS011;13668;52.154;5.580;2023-05-23T11:47:56;7.18;;;1.35;;
24357;SDS011;13668;52.154;5.580;2023-05-23T11:50:22;1.95;;;1.13;;
24357;SDS011;13668;52.154;5.580;2023-05-23T11:52:51;0.98;;;0.60;;
24357;SDS011;13668;52.154;5.580;2023-05-23T11:55:19;4.30;;;1.13;;
24357;SDS011;13668;52.154;5.580;2023-05-23T11:57:46;1.52;;;0.95;;
24357;SDS011;13668;52.154;5.580;2023-05-23T12:00:12;3.30;;;1.20;;
24357;SDS011;13668;52.154;5.580;2023-05-23T12:02:42;3.20;;;1.10;;
24357;SDS011;13668;52.154;5.580;2023-05-23T12:05:08;3.13;;;1.52;;
24357;SDS011;13668;52.154;5.580;2023-05-23T12:07:35;3.35;;;1.20;;
24357;SDS011;13668;52.154;5.580;2023-05-23T12:10:05;3.90;;;0.85;;
24357;SDS011;13668;52.154;5.580;2023-05-23T12:12:31;2.03;;;0.80;;
24357;SDS011;13668;52.154;5.580;2023-05-23T12:14:57;3.90;;;0.90;;
24357;SDS011;13668;52.154;5.580;2023-05-23T12:17:23;4.03;;;0.88;;
24357;SDS011;13668;52.154;5.580;2023-05-23T12:19:49;4.05;;;1.02;;
24357;SDS011;13668;52.154;5.580;2023-05-23T12:22:20;1.38;;;0.80;;
24357;SDS011;13668;52.154;5.580;2023-05-23T12:24:47;5.97;;;0.85;;
24357;SDS011;13668;52.154;5.580;2023-05-23T12:27:14;0.80;;;0.60;;
24357;SDS011;13668;52.154;5.580;2023-05-23T12:29:48;3.60;;;1.40;;
24357;SDS011;13668;52.154;5.580;2023-05-23T12:32:15;3.58;;;0.90;;
24357;SDS011;13668;52.154;5.580;2023-05-23T12:34:41;2.78;;;0.57;;
24357;SDS011;13668;52.154;5.580;2023-05-23T12:37:07;1.08;;;0.80;;
24357;SDS011;13668;52.154;5.580;2023-05-23T12:39:33;4.20;;;0.95;;
24357;SDS011;13668;52.154;5.580;2023-05-23T12:42:07;2.22;;;0.85;;
24357;SDS011;13668;52.154;5.580;2023-05-23T12:44:33;1.88;;;0.80;;
24357;SDS011;13668;52.154;5.580;2023-05-23T12:46:59;4.15;;;1.00;;
24357;SDS011;13668;52.154;5.580;2023-05-23T12:49:25;3.13;;;0.93;;
24357;SDS011;13668;52.154;5.580;2023-05-23T12:51:51;1.88;;;0.80;;
24357;SDS011;13668;52.154;5.580;2023-05-23T12:54:17;2.50;;;0.98;;
24357;SDS011;13668;52.154;5.580;2023-05-23T12:56:43;2.03;;;0.60;;
24357;SDS011;13668;52.154;5.580;2023-05-23T12:59:09;3.50;;;1.08;;
24357;SDS011;13668;52.154;5.580;2023-05-23T13:01:35;1.33;;;0.60;;
24357;SDS011;13668;52.154;5.580;2023-05-23T13:04:01;3.38;;;0.90;;
24357;SDS011;13668;52.154;5.580;2023-05-23T13:06:27;1.15;;;0.65;;
24357;SDS011;13668;52.154;5.580;2023-05-23T13:08:53;2.25;;;0.65;;
24357;SDS011;13668;52.154;5.580;2023-05-23T13:11:20;2.17;;;0.70;;
24357;SDS011;13668;52.154;5.580;2023-05-23T13:13:49;2.45;;;1.02;;
24357;SDS011;13668;52.154;5.580;2023-05-23T13:16:15;1.73;;;0.57;;
24357;SDS011;13668;52.154;5.580;2023-05-23T13:18:41;5.25;;;1.20;;
24357;SDS011;13668;52.154;5.580;2023-05-23T13:21:07;1.85;;;0.50;;
24357;SDS011;13668;52.154;5.580;2023-05-23T13:23:33;1.42;;;0.63;;
24357;SDS011;13668;52.154;5.580;2023-05-23T13:26:01;1.83;;;0.55;;
24357;SDS011;13668;52.154;5.580;2023-05-23T13:28:27;3.90;;;0.95;;
24357;SDS011;13668;52.154;5.580;2023-05-23T13:30:53;2.53;;;0.90;;
24357;SDS011;13668;52.154;5.580;2023-05-23T13:33:19;1.98;;;0.93;;
24357;SDS011;13668;52.154;5.580;2023-05-23T13:35:47;3.28;;;0.90;;
24357;SDS011;13668;52.154;5.580;2023-05-23T13:38:14;0.68;;;0.50;;
24357;SDS011;13668;52.154;5.580;2023-05-23T13:40:40;2.65;;;0.88;;
24357;SDS011;13668;52.154;5.580;2023-05-23T13:43:06;2.63;;;0.70;;
24357;SDS011;13668;52.154;5.580;2023-05-23T13:45:32;2.38;;;0.93;;
24357;SDS011;13668;52.154;5.580;2023-05-23T13:47:58;0.75;;;0.47;;
24357;SDS011;13668;52.154;5.580;2023-05-23T13:50:24;3.08;;;1.25;;
24357;SDS011;13668;52.154;5.580;2023-05-23T13:52:51;1.38;;;0.85;;
24357;SDS011;13668;52.154;5.580;2023-05-23T13:55:17;3.97;;;0.75;;
24357;SDS011;13668;52.154;5.580;2023-05-23T13:57:43;3.38;;;1.38;;
24357;SDS011;13668;52.154;5.580;2023-05-23T14:00:09;5.63;;;1.83;;
24357;SDS011;13668;52.154;5.580;2023-05-23T14:02:35;6.53;;;1.38;;
24357;SDS011;13668;52.154;5.580;2023-05-23T14:05:01;9.38;;;2.45;;
24357;SDS011;13668;52.154;5.580;2023-05-23T14:07:27;14.82;;;2.78;;
24357;SDS011;13668;52.154;5.580;2023-05-23T14:09:53;13.73;;;1.00;;
24357;SDS011;13668;52.154;5.580;2023-05-23T14:12:19;5.05;;;0.80;;
24357;SDS011;13668;52.154;5.580;2023-05-23T14:14:45;0.82;;;0.68;;
24357;SDS011;13668;52.154;5.580;2023-05-23T14:17:14;2.10;;;0.70;;
24357;SDS011;13668;52.154;5.580;2023-05-23T14:19:41;3.72;;;1.20;;
24357;SDS011;13668;52.154;5.580;2023-05-23T14:22:07;2.17;;;0.55;;
24357;SDS011;13668;52.154;5.580;2023-05-23T14:24:33;1.80;;;0.75;;
24357;SDS011;13668;52.154;5.580;2023-05-23T14:26:59;1.15;;;0.73;;
24357;SDS011;13668;52.154;5.580;2023-05-23T14:29:26;3.08;;;0.68;;
24357;SDS011;13668;52.154;5.580;2023-05-23T14:31:52;3.65;;;0.93;;
24357;SDS011;13668;52.154;5.580;2023-05-23T14:34:18;3.03;;;1.35;;
24357;SDS011;13668;52.154;5.580;2023-05-23T14:36:45;1.25;;;0.43;;
24357;SDS011;13668;52.154;5.580;2023-05-23T14:39:11;3.17;;;1.08;;
24357;SDS011;13668;52.154;5.580;2023-05-23T14:41:37;1.85;;;1.20;;
24357;SDS011;13668;52.154;5.580;2023-05-23T14:44:03;2.97;;;0.80;;
24357;SDS011;13668;52.154;5.580;2023-05-23T14:46:29;1.67;;;1.17;;
24357;SDS011;13668;52.154;5.580;2023-05-23T14:48:55;2.53;;;0.85;;
24357;SDS011;13668;52.154;5.580;2023-05-23T14:51:21;2.97;;;0.73;;
24357;SDS011;13668;52.154;5.580;2023-05-23T14:53:47;1.40;;;0.52;;
24357;SDS011;13668;52.154;5.580;2023-05-23T14:56:13;1.00;;;0.60;;
24357;SDS011;13668;52.154;5.580;2023-05-23T14:58:39;3.67;;;1.70;;
24357;SDS011;13668;52.154;5.580;2023-05-23T15:01:09;1.70;;;0.55;;
24357;SDS011;13668;52.154;5.580;2023-05-23T15:03:36;1.42;;;0.80;;
24357;SDS011;13668;52.154;5.580;2023-05-23T15:06:02;4.82;;;1.50;;